createdAt,value
2022-08-25T00:05:07.630Z,0
2022-08-25T00:09:33.736Z,0
2022-08-25T00:14:26.073Z,0
2022-08-25T00:19:35.196Z,0
2022-08-25T00:24:44.959Z,0
2022-08-25T00:29:54.798Z,0
2022-08-25T00:35:03.202Z,0
2022-08-25T00:40:13.179Z,0
2022-08-25T00:45:22.717Z,0
2022-08-25T00:50:33.916Z,0
2022-08-25T00:55:43.520Z,0
2022-08-25T01:02:14.113Z,0
2022-08-25T01:07:18.125Z,0
2022-08-25T01:12:31.586Z,0
2022-08-25T01:17:37.452Z,0
2022-08-25T01:22:55.580Z,0
2022-08-25T01:27:56.330Z,0
2022-08-25T01:33:05.447Z,0
2022-08-25T01:38:15.202Z,0
2022-08-25T01:43:24.961Z,0
2022-08-25T01:48:32.795Z,0
2022-08-25T01:53:41.915Z,0
2022-08-25T01:58:51.678Z,0
2022-08-25T02:04:03.026Z,0
2022-08-25T02:09:11.835Z,0
2022-08-25T02:14:20.300Z,0
2022-08-25T02:19:28.811Z,0
2022-08-25T02:24:38.556Z,0
2022-08-25T02:29:48.332Z,0
2022-08-25T02:34:56.168Z,0
2022-08-25T02:40:04.949Z,0
2022-08-25T02:45:13.125Z,0
2022-08-25T02:50:21.593Z,0
2022-08-25T02:55:34.760Z,0
2022-08-25T03:00:43.344Z,0
2022-08-25T03:05:50.874Z,0
2022-08-25T03:10:59.349Z,0
2022-08-25T03:16:13.521Z,0
2022-08-25T03:21:17.739Z,0
2022-08-25T03:26:27.356Z,0
2022-08-25T03:31:37.347Z,0
2022-08-25T03:36:46.876Z,0
2022-08-25T03:41:57.275Z,0
2022-08-25T03:47:07.054Z,0
2022-08-25T03:52:15.520Z,0
2022-08-25T03:57:23.998Z,0
2022-08-25T04:02:33.386Z,1
2022-08-25T04:07:42.941Z,3
2022-08-25T04:12:51.350Z,6
2022-08-25T04:17:59.833Z,11
2022-08-25T04:23:09.589Z,17
2022-08-25T04:28:17.432Z,28
2022-08-25T04:33:26.554Z,44
2022-08-25T04:38:36.313Z,63
2022-08-25T04:43:45.431Z,84
2022-08-25T04:48:54.574Z,101
2022-08-25T04:54:03.056Z,118
2022-08-25T04:59:14.104Z,130
2022-08-25T05:04:29.379Z,143
2022-08-25T05:09:33.214Z,168
2022-08-25T05:14:40.996Z,205
2022-08-25T05:19:49.273Z,251
2022-08-25T05:24:59.481Z,297
2022-08-25T05:30:08.794Z,339
2022-08-25T05:35:16.634Z,383
2022-08-25T05:40:26.589Z,1436
2022-08-25T05:45:35.780Z,453
2022-08-25T05:50:44.617Z,483
2022-08-25T05:55:54.391Z,530
2022-08-25T06:01:03.839Z,584
2022-08-25T06:06:13.289Z,622
2022-08-25T06:11:22.398Z,597
2022-08-25T06:16:32.384Z,587
2022-08-25T06:21:41.279Z,955
2022-08-25T06:26:50.394Z,605
2022-08-25T06:31:59.361Z,618
2022-08-25T06:37:08.641Z,633
2022-08-25T06:42:18.408Z,645
2022-08-25T06:47:27.553Z,660
2022-08-25T06:52:37.928Z,673
2022-08-25T06:57:47.087Z,839
2022-08-25T07:02:56.142Z,697
2022-08-25T07:08:05.463Z,707
2022-08-25T07:13:13.755Z,727
2022-08-25T07:18:22.242Z,732
2022-08-25T07:23:30.712Z,743
2022-08-25T07:28:47.654Z,761
2022-08-25T07:33:49.195Z,764
2022-08-25T07:38:58.096Z,780
2022-08-25T07:44:07.201Z,795
2022-08-25T07:49:17.352Z,813
2022-08-25T07:54:35.523Z,828
2022-08-25T07:59:40.641Z,880
2022-08-25T08:04:43.630Z,915
2022-08-25T08:11:04.430Z,985
2022-08-25T08:15:00.632Z,999
2022-08-25T08:20:08.488Z,1035
2022-08-25T08:25:27.942Z,994
2022-08-25T08:30:26.745Z,926
2022-08-25T08:35:34.562Z,881
2022-08-25T08:40:47.362Z,876
2022-08-25T08:45:53.976Z,888
2022-08-25T08:51:00.655Z,897
2022-08-25T08:56:12.572Z,914
2022-08-25T09:01:20.358Z,924
2022-08-25T09:06:31.214Z,939
2022-08-25T09:11:39.693Z,952
2022-08-25T09:16:49.084Z,970
2022-08-25T09:21:57.940Z,998
2022-08-25T09:27:06.748Z,1011
2022-08-25T09:32:31.794Z,1025
2022-08-25T09:37:25.295Z,1043
2022-08-25T09:42:35.037Z,1054
2022-08-25T09:47:46.647Z,1055
2022-08-25T09:52:54.825Z,1074
2022-08-25T09:58:09.785Z,1057
2022-08-25T10:03:12.805Z,1072
2022-08-25T10:08:27.909Z,1096
2022-08-25T10:13:44.101Z,1096
2022-08-25T10:18:59.571Z,1088
2022-08-25T10:24:15.307Z,1096
2022-08-25T10:29:32.575Z,1063
2022-08-25T10:34:46.134Z,1068
2022-08-25T10:40:01.100Z,1044
2022-08-25T10:45:18.208Z,1044
2022-08-25T10:50:31.449Z,1065
2022-08-25T10:55:46.934Z,1056
2022-08-25T10:59:59.523Z,1062
2022-08-25T11:06:26.491Z,1053
2022-08-25T11:12:17.135Z,1057
2022-08-25T11:12:36.772Z,1057
2022-08-25T11:17:35.445Z,1060
2022-08-25T11:24:48.285Z,1061
2022-08-25T11:25:08.069Z,1061
2022-08-25T11:30:30.948Z,1058
2022-08-25T11:36:37.158Z,1054
2022-08-25T11:44:26.302Z,1048
2022-08-25T11:51:53.275Z,1058
2022-08-25T11:57:02.017Z,1037
2022-08-25T12:02:09.436Z,1082
2022-08-25T12:07:22.122Z,1059
2022-08-25T12:12:28.348Z,1047
2022-08-25T12:17:36.799Z,1045
2022-08-25T12:22:44.641Z,1033
2022-08-25T12:27:54.969Z,983
2022-08-25T12:33:03.525Z,991
2022-08-25T12:38:12.631Z,989
2022-08-25T12:43:26.851Z,955
2022-08-25T12:48:58.478Z,947
2022-08-25T12:54:11.436Z,954
2022-08-25T12:59:14.719Z,908
2022-08-25T13:04:25.121Z,905
2022-08-25T13:09:35.602Z,880
2022-08-25T13:14:49.711Z,872
2022-08-25T13:19:54.396Z,841
2022-08-25T13:25:05.597Z,903
2022-08-25T13:30:18.961Z,840
2022-08-25T13:35:33.212Z,825
2022-08-25T13:40:38.771Z,796
2022-08-25T13:45:45.996Z,798
2022-08-25T13:50:58.282Z,786
2022-08-25T13:56:10.043Z,779
2022-08-25T14:01:50.310Z,750
2022-08-25T14:06:28.623Z,755
2022-08-25T14:11:39.350Z,786
2022-08-25T14:16:49.426Z,762
2022-08-25T14:21:59.184Z,729
2022-08-25T14:27:12.084Z,707
2022-08-25T14:32:18.501Z,697
2022-08-25T14:37:27.206Z,678
2022-08-25T14:42:35.029Z,663
2022-08-25T14:47:43.557Z,671
2022-08-25T14:53:01.194Z,633
2022-08-25T14:58:12.853Z,603
2022-08-25T15:03:28.352Z,604
2022-08-25T15:08:43.256Z,586
2022-08-25T15:13:58.772Z,570
2022-08-25T15:19:13.834Z,556
2022-08-25T15:24:28.645Z,561
2022-08-25T15:29:44.706Z,529
2022-08-25T15:35:02.137Z,510
2022-08-25T15:40:17.695Z,503
2022-08-25T15:44:53.033Z,496
2022-08-25T15:49:38.089Z,491
2022-08-25T15:54:48.365Z,465
2022-08-25T15:59:58.232Z,482
2022-08-25T16:05:06.121Z,458
2022-08-25T16:10:15.193Z,434
2022-08-25T16:15:29.157Z,433
2022-08-25T16:20:32.999Z,396
2022-08-25T16:25:46.974Z,389
2022-08-25T16:30:53.443Z,369
2022-08-25T16:36:00.791Z,347
2022-08-25T16:41:16.254Z,326
2022-08-25T16:46:24.372Z,310
2022-08-25T16:51:34.186Z,295
2022-08-25T16:56:42.972Z,289
2022-08-25T17:01:53.615Z,278
2022-08-25T17:07:05.159Z,264
2022-08-25T17:12:12.952Z,251
2022-08-25T17:17:27.221Z,232
2022-08-25T17:22:31.712Z,220
2022-08-25T17:27:40.311Z,207
2022-08-25T17:32:52.602Z,203
2022-08-25T17:37:59.192Z,202
2022-08-25T17:43:09.907Z,198
2022-08-25T17:48:19.255Z,187
2022-08-25T17:53:29.930Z,159
2022-08-25T17:58:37.593Z,130
2022-08-25T18:03:47.371Z,110
2022-08-25T18:09:01.352Z,72
2022-08-25T18:14:05.598Z,47
2022-08-25T18:19:15.353Z,34
2022-08-25T18:24:27.677Z,25
2022-08-25T18:29:37.109Z,19
2022-08-25T18:34:45.926Z,13
2022-08-25T18:39:54.513Z,9
2022-08-25T18:45:05.453Z,5
2022-08-25T18:50:14.668Z,2
2022-08-25T18:55:22.390Z,1
2022-08-25T19:00:32.166Z,0
2022-08-25T19:05:57.773Z,0
2022-08-25T19:10:54.487Z,0
2022-08-25T19:16:08.743Z,0
2022-08-25T19:21:24.894Z,0
2022-08-25T19:26:43.026Z,0
2022-08-25T19:32:01.268Z,0
2022-08-25T19:37:13.975Z,0
2022-08-25T19:42:38.596Z,0
2022-08-25T19:47:45.709Z,0
2022-08-25T19:53:01.430Z,0
2022-08-25T19:58:20.617Z,0
2022-08-25T20:02:22.935Z,0
2022-08-25T20:07:31.377Z,0
2022-08-25T20:12:40.648Z,0
2022-08-25T20:17:49.597Z,0
2022-08-25T20:22:59.364Z,0
2022-08-25T20:28:19.334Z,0
2022-08-25T20:33:23.661Z,0
2022-08-25T20:38:26.720Z,0
2022-08-25T20:43:36.497Z,0
2022-08-25T20:48:44.327Z,0
2022-08-25T20:53:54.076Z,0
2022-08-25T20:59:03.894Z,0
2022-08-25T21:04:14.715Z,0
2022-08-25T21:09:22.077Z,0
2022-08-25T21:14:31.938Z,0
2022-08-25T21:19:42.233Z,0
2022-08-25T21:24:49.447Z,0
2022-08-25T21:29:59.529Z,0
2022-08-25T21:35:08.312Z,0
2022-08-25T21:40:16.977Z,0
2022-08-25T21:45:36.283Z,0
2022-08-25T21:50:37.284Z,0
2022-08-25T21:55:46.718Z,0
2022-08-25T22:00:56.073Z,0
2022-08-25T22:06:05.633Z,0
2022-08-25T22:11:15.062Z,0
2022-08-25T22:16:23.403Z,0
2022-08-25T22:21:31.849Z,0
2022-08-25T22:26:40.155Z,0
2022-08-25T22:31:53.211Z,0
2022-08-25T22:37:01.037Z,0
2022-08-25T22:42:10.083Z,0
2022-08-25T22:47:18.551Z,0
2022-08-25T22:52:34.795Z,0
2022-08-25T22:57:43.451Z,0
2022-08-25T23:02:59.639Z,0
2022-08-25T23:08:14.461Z,0
2022-08-25T23:13:34.734Z,0
2022-08-25T23:18:45.496Z,0
2022-08-25T23:24:01.053Z,0
2022-08-25T23:29:19.085Z,0
2022-08-25T23:34:33.718Z,0
2022-08-25T23:39:49.585Z,0
2022-08-25T23:44:17.267Z,0
2022-08-25T23:49:09.464Z,0
2022-08-25T23:54:16.511Z,0
2022-08-25T23:59:25.834Z,0
